Time;durP1;ratioP1;P1;durP2;ratioP2;P2;SDS_P1;SDS_P2;PMS_P1;PMS_P2;Temp;Humidity;BMP_temperature;BMP_pressure;BME280_temperature;BME280_humidity;BME280_pressure;Samples;Min_cycle;Max_cycle;Signal;HPM_P1;HPM_P2
2021/09/12 00:02:14;;;;;;;11.40;3.10;;;;;;;17.04;74.37;101784.97;4987171;28;20037;-77
2021/09/12 00:04:39;;;;;;;14.13;3.10;;;;;;;17.20;74.82;101786.81;5021417;28;20029;-77
2021/09/12 00:07:05;;;;;;;11.00;2.95;;;;;;;17.06;76.24;101782.25;4987712;28;20313;-77
2021/09/12 00:09:30;;;;;;;14.23;4.22;;;;;;;17.40;76.79;101783.94;5003069;28;20351;-78
2021/09/12 00:11:56;;;;;;;10.18;3.40;;;;;;;18.00;71.60;101774.50;4987723;28;20030;-77
2021/09/12 00:14:21;;;;;;;9.68;3.35;;;;;;;17.32;73.74;101786.16;5020469;28;20061;-78
2021/09/12 00:16:46;;;;;;;8.70;3.30;;;;;;;17.15;74.68;101786.19;5007820;28;20026;-77
2021/09/12 00:19:12;;;;;;;11.32;3.47;;;;;;;17.06;75.75;101775.19;5006866;28;20056;-77
2021/09/12 00:21:37;;;;;;;11.20;3.25;;;;;;;16.85;75.38;101774.50;5006772;28;20026;-78
2021/09/12 00:24:03;;;;;;;12.60;3.80;;;;;;;17.32;74.20;101769.41;5023251;28;20045;-78
2021/09/12 00:26:28;;;;;;;12.77;3.67;;;;;;;16.62;76.33;101773.00;5006342;28;20034;-78
2021/09/12 00:28:54;;;;;;;10.73;3.47;;;;;;;17.05;74.58;101764.69;5006900;28;20360;-78
2021/09/12 00:31:19;;;;;;;8.85;3.20;;;;;;;16.57;76.55;101764.47;5022747;28;20467;-78
2021/09/12 00:33:45;;;;;;;9.15;3.25;;;;;;;16.50;76.68;101763.09;5023199;28;20045;-77
2021/09/12 00:36:10;;;;;;;11.45;3.40;;;;;;;16.36;77.16;101765.56;4992182;28;20029;-78
2021/09/12 00:38:36;;;;;;;11.07;3.42;;;;;;;16.35;78.35;101763.84;4994100;28;20101;-77
2021/09/12 00:41:01;;;;;;;6.85;3.53;;;;;;;16.35;77.37;101754.13;5010840;28;20079;-78
2021/09/12 00:43:27;;;;;;;9.05;3.58;;;;;;;16.70;76.57;101756.78;5026831;28;20049;-77
2021/09/12 00:45:53;;;;;;;12.45;4.45;;;;;;;16.17;78.08;101755.91;5026940;28;20029;-78
2021/09/12 00:48:18;;;;;;;9.35;3.42;;;;;;;16.56;76.38;101752.19;5044115;28;20037;-78
2021/09/12 00:50:44;;;;;;;10.63;4.55;;;;;;;16.70;76.21;101752.34;4994201;28;20260;-77
2021/09/12 00:53:09;;;;;;;12.50;3.78;;;;;;;16.55;76.34;101749.63;5026781;28;20047;-77
2021/09/12 00:55:35;;;;;;;9.52;3.67;;;;;;;17.19;76.36;101755.97;5026281;28;20040;-77
2021/09/12 00:58:00;;;;;;;9.02;3.47;;;;;;;16.61;75.74;101758.09;4993805;28;20062;-78
2021/09/12 01:00:26;;;;;;;6.28;3.40;;;;;;;16.69;76.40;101753.25;4993403;28;20024;-78
2021/09/12 01:02:52;;;;;;;12.38;3.75;;;;;;;16.75;78.40;101759.16;5024253;28;20052;-77
2021/09/12 01:05:17;;;;;;;7.53;3.45;;;;;;;16.87;74.67;101753.28;5043337;28;20033;-77
2021/09/12 01:07:43;;;;;;;9.68;3.78;;;;;;;16.21;76.63;101754.81;5010491;28;20025;-77
2021/09/12 01:10:09;;;;;;;8.02;3.67;;;;;;;15.82;78.72;101750.56;5026340;28;20041;-78
2021/09/12 01:12:35;;;;;;;11.50;4.30;;;;;;;15.59;79.78;101756.03;5025577;28;20060;-77
2021/09/12 01:15:00;;;;;;;12.02;3.67;;;;;;;15.61;79.56;101760.34;4993745;28;20312;-77
2021/09/12 01:17:27;;;;;;;16.55;4.07;;;;;;;15.61;79.61;101760.34;5009404;28;20104;-77
2021/09/12 01:19:53;;;;;;;15.95;4.35;;;;;;;15.58;79.92;101757.84;5043649;28;20021;-77
2021/09/12 01:22:18;;;;;;;9.90;4.20;;;;;;;15.58;79.21;101749.91;4993091;28;20189;-78
2021/09/12 01:24:43;;;;;;;9.60;3.90;;;;;;;15.71;80.63;101758.94;5009568;28;20033;-77
2021/09/12 01:27:09;;;;;;;8.43;4.43;;;;;;;15.94;78.54;101754.41;5010098;28;20120;-78
2021/09/12 01:29:35;;;;;;;10.02;4.07;;;;;;;16.70;79.94;101752.34;5025249;28;20033;-78
2021/09/12 01:32:00;;;;;;;11.90;4.65;;;;;;;16.40;75.79;101749.47;5025547;28;20049;-77
2021/09/12 01:34:26;;;;;;;11.35;4.85;;;;;;;16.28;76.06;101752.72;5024772;28;20033;-78
2021/09/12 01:36:51;;;;;;;11.85;5.07;;;;;;;15.72;78.46;101754.56;5026093;28;20048;-77
2021/09/12 01:39:16;;;;;;;14.45;5.40;;;;;;;15.55;79.09;101758.84;5009016;28;20324;-77
2021/09/12 01:41:42;;;;;;;16.02;6.30;;;;;;;15.48;79.65;101756.53;5009318;28;20256;-77
2021/09/12 01:44:07;;;;;;;13.70;5.55;;;;;;;15.36;80.07;101763.25;5009518;28;20037;-77
2021/09/12 01:46:33;;;;;;;9.95;4.85;;;;;;;15.48;80.15;101754.78;5008817;28;20044;-77
2021/09/12 01:49:04;;;;;;;13.40;5.40;;;;;;;15.93;80.69;101755.31;5009021;28;20026;-77
2021/09/12 01:51:30;;;;;;;9.60;5.57;;;;;;;15.63;78.72;101757.63;5025271;28;20316;-77
2021/09/12 01:53:55;;;;;;;11.45;5.20;;;;;;;15.61;80.00;101760.34;5025257;28;20030;-77
2021/09/12 01:56:21;;;;;;;12.88;4.90;;;;;;;15.90;78.34;101750.22;5008599;28;20037;-77
2021/09/12 01:58:46;;;;;;;10.98;5.20;;;;;;;16.09;79.29;101766.00;5025166;28;20201;-77
2021/09/12 02:01:12;;;;;;;11.00;5.47;;;;;;;15.87;78.30;101753.00;5024955;28;20033;-78
2021/09/12 02:03:37;;;;;;;6.03;4.57;;;;;;;15.72;78.93;101757.19;5042769;28;20321;-78
2021/09/12 02:06:02;;;;;;;9.90;4.93;;;;;;;16.07;79.57;101749.38;5025520;28;20096;-78
2021/09/12 02:08:28;;;;;;;15.32;5.93;;;;;;;15.94;78.03;101754.41;5042199;28;20033;-77
2021/09/12 02:10:53;;;;;;;15.65;6.15;;;;;;;15.98;80.00;101748.03;5025797;28;20083;-77
2021/09/12 02:13:19;;;;;;;16.75;6.32;;;;;;;15.69;78.57;101758.19;5024682;28;20104;-77
2021/09/12 02:15:44;;;;;;;16.40;6.47;;;;;;;15.57;79.61;101758.75;5008938;28;20096;-77
2021/09/12 02:18:10;;;;;;;14.10;5.97;;;;;;;15.44;79.98;101750.56;5008983;28;20228;-77
2021/09/12 02:20:36;;;;;;;14.18;6.68;;;;;;;15.51;79.70;101757.25;5024553;28;20264;-77
2021/09/12 02:23:01;;;;;;;14.90;5.75;;;;;;;15.54;80.78;101751.00;5025232;28;20039;-77
2021/09/12 02:25:27;;;;;;;14.88;6.35;;;;;;;15.76;78.33;101755.28;5024812;28;20045;-78
2021/09/12 02:27:52;;;;;;;13.52;6.30;;;;;;;15.73;79.93;101756.25;5042719;28;20351;-78
2021/09/12 02:30:18;;;;;;;11.05;6.40;;;;;;;15.43;80.36;101762.06;4991936;28;20033;-77
2021/09/12 02:32:43;;;;;;;12.95;6.72;;;;;;;15.69;79.61;101762.59;5024472;28;20225;-78
2021/09/12 02:35:09;;;;;;;13.85;6.60;;;;;;;15.72;78.94;101751.91;5008843;28;20378;-78
2021/09/12 02:37:34;;;;;;;13.52;6.53;;;;;;;15.70;79.17;101751.97;5007782;28;20044;-77
2021/09/12 02:40:00;;;;;;;15.00;6.68;;;;;;;15.48;79.71;101745.97;5024660;28;20232;-77
2021/09/12 02:42:25;;;;;;;14.93;7.00;;;;;;;15.33;80.28;101753.72;5024404;28;20329;-77
2021/09/12 02:44:51;;;;;;;13.90;7.00;;;;;;;15.30;80.78;101758.28;5008218;28;20029;-77
2021/09/12 02:47:16;;;;;;;19.60;7.85;;;;;;;15.30;80.57;101756.50;5041786;28;20047;-77
2021/09/12 02:49:42;;;;;;;20.70;7.60;;;;;;;15.26;80.89;101751.41;5042131;28;20103;-77
2021/09/12 02:52:07;;;;;;;12.70;6.97;;;;;;;15.25;80.71;101766.38;5004111;28;20033;-77
2021/09/12 02:54:33;;;;;;;14.23;7.05;;;;;;;15.59;80.85;101746.34;4987877;28;20038;-77
2021/09/12 02:56:58;;;;;;;18.70;7.10;;;;;;;15.38;81.29;101756.13;4988635;28;20026;-77
2021/09/12 02:59:23;;;;;;;17.45;8.05;;;;;;;15.22;80.98;101753.31;4988310;28;20034;-78
2021/09/12 03:01:49;;;;;;;19.85;7.95;;;;;;;15.33;80.81;101752.84;5004368;28;20034;-77
2021/09/12 03:04:14;;;;;;;16.52;7.53;;;;;;;15.50;80.54;101749.44;5004063;28;20030;-78
2021/09/12 03:06:40;;;;;;;15.65;7.20;;;;;;;15.79;79.47;101752.47;5004045;28;20053;-77
2021/09/12 03:09:05;;;;;;;11.18;6.07;;;;;;;16.15;80.56;101760.41;4988186;28;20044;-77
2021/09/12 03:11:31;;;;;;;11.43;6.43;;;;;;;16.01;78.85;101758.47;4987504;28;20053;-77
2021/09/12 03:13:56;;;;;;;28.05;8.57;;;;;;;15.93;78.42;101761.47;4987998;28;20026;-77
2021/09/12 03:16:22;;;;;;;18.83;8.80;;;;;;;15.68;79.69;101752.97;5003907;28;20395;-78
2021/09/12 03:18:47;;;;;;;15.32;7.53;;;;;;;15.76;79.96;101756.16;4987794;28;20101;-77
2021/09/12 03:21:13;;;;;;;13.57;8.07;;;;;;;15.82;79.10;101750.56;4987454;28;20038;-77
2021/09/12 03:23:39;;;;;;;17.92;8.57;;;;;;;15.50;80.70;101757.34;5004063;28;20317;-77
2021/09/12 03:26:04;;;;;;;18.08;8.65;;;;;;;15.60;79.72;101755.13;4988009;28;20022;-77
2021/09/12 03:28:29;;;;;;;18.42;8.75;;;;;;;15.84;79.24;101758.41;5003412;28;20036;-78
2021/09/12 03:30:55;;;;;;;16.17;8.30;;;;;;;15.78;79.55;101756.06;5003929;28;20049;-78
2021/09/12 03:33:20;;;;;;;19.40;8.10;;;;;;;16.03;78.03;101739.91;4987599;28;20021;-78
2021/09/12 03:35:46;;;;;;;18.40;8.10;;;;;;;15.86;78.74;101744.22;5003702;28;20140;-77
2021/09/12 03:38:11;;;;;;;19.92;9.05;;;;;;;15.62;80.27;101754.13;5003556;28;20037;-76
2021/09/12 03:40:37;;;;;;;27.60;8.90;;;;;;;15.69;80.92;101752.03;4987541;28;20033;-77
2021/09/12 03:43:02;;;;;;;24.33;9.70;;;;;;;15.67;80.77;101756.56;5021350;28;20101;-77
2021/09/12 03:45:28;;;;;;;19.58;9.05;;;;;;;15.59;80.65;101756.03;5003250;28;20038;-78
2021/09/12 03:47:53;;;;;;;20.67;9.43;;;;;;;15.47;81.35;101755.69;5003979;28;20026;-77
2021/09/12 03:50:19;;;;;;;20.83;9.48;;;;;;;15.71;80.44;101755.47;4987148;28;20045;-77
2021/09/12 03:52:44;;;;;;;21.13;8.85;;;;;;;15.78;81.53;101758.72;4987268;28;20026;-77
2021/09/12 03:55:10;;;;;;;18.50;9.43;;;;;;;15.69;80.58;101755.53;5003751;28;20034;-77
2021/09/12 03:57:35;;;;;;;15.35;8.55;;;;;;;15.70;80.44;101761.69;5003405;28;20038;-77
2021/09/12 04:00:01;;;;;;;17.48;8.63;;;;;;;16.23;78.66;101758.25;5008521;28;20033;-78
2021/09/12 04:02:26;;;;;;;21.48;9.50;;;;;;;15.55;81.55;101760.59;5006236;28;20372;-78
2021/09/12 04:04:52;;;;;;;23.92;9.95;;;;;;;15.58;81.51;101763.13;4990971;28;20025;-78
2021/09/12 04:07:17;;;;;;;23.02;9.70;;;;;;;15.69;81.86;101765.25;5023000;28;20094;-77
2021/09/12 04:09:43;;;;;;;26.30;10.05;;;;;;;15.85;80.47;101765.41;5023253;28;20037;-77
2021/09/12 04:12:08;;;;;;;22.33;10.43;;;;;;;15.81;80.75;101759.44;5010209;28;20344;-77
2021/09/12 04:14:34;;;;;;;14.90;8.23;;;;;;;15.96;80.70;101754.34;5044097;28;20279;-77
2021/09/12 04:16:59;;;;;;;19.65;9.30;;;;;;;15.85;80.48;101747.78;4994474;28;20063;-77
2021/09/12 04:19:24;;;;;;;26.30;11.02;;;;;;;15.61;81.66;101752.41;5026515;28;20256;-77
2021/09/12 04:21:50;;;;;;;20.30;10.13;;;;;;;15.59;82.10;101756.03;5044411;28;20075;-77
2021/09/12 04:24:15;;;;;;;22.63;11.40;;;;;;;15.46;82.36;101756.66;5010327;28;20040;-77
2021/09/12 04:26:41;;;;;;;21.98;10.98;;;;;;;15.31;83.55;101754.69;5026915;28;20052;-77
2021/09/12 04:29:06;;;;;;;25.02;11.20;;;;;;;15.28;83.55;101755.69;5010817;28;20351;-77
2021/09/12 04:31:32;;;;;;;24.48;11.77;;;;;;;15.39;83.28;101755.22;5043895;28;20085;-78
2021/09/12 04:33:57;;;;;;;29.60;12.52;;;;;;;15.28;83.56;101752.19;5010641;28;20248;-77
2021/09/12 04:36:23;;;;;;;25.50;10.75;;;;;;;15.39;84.52;101749.06;5010071;28;20262;-77
2021/09/12 04:38:48;;;;;;;23.27;10.85;;;;;;;15.44;84.30;101740.00;5010597;28;20040;-77
2021/09/12 04:41:13;;;;;;;25.58;12.60;;;;;;;15.26;83.68;101748.75;5043998;28;20034;-77
2021/09/12 04:43:39;;;;;;;26.42;13.13;;;;;;;15.19;83.89;101749.97;5026871;28;20229;-78
2021/09/12 04:46:04;;;;;;;30.95;14.18;;;;;;;15.17;84.25;101750.03;5044432;28;20051;-77
2021/09/12 04:48:30;;;;;;;24.48;11.68;;;;;;;15.29;84.25;101748.63;5026006;28;20035;-78
2021/09/12 04:50:55;;;;;;;34.10;13.70;;;;;;;15.47;83.26;101752.22;5010533;28;20070;-77
2021/09/12 04:53:21;;;;;;;9.55;5.72;;;;;;;15.93;83.00;101745.63;5009825;28;20379;-77
2021/09/12 04:55:47;;;;;;;26.13;12.80;;;;;;;15.86;81.55;101749.50;5026372;28;20118;-77
2021/09/12 04:58:12;;;;;;;27.20;13.43;;;;;;;15.84;82.59;101756.63;5009651;28;20029;-77
2021/09/12 05:00:38;;;;;;;21.13;11.50;;;;;;;15.92;81.44;101754.47;4993807;28;20033;-77
2021/09/12 05:03:03;;;;;;;28.58;12.52;;;;;;;15.71;82.57;101753.66;5026571;28;20025;-78
2021/09/12 05:05:28;;;;;;;22.80;11.57;;;;;;;15.98;81.63;101753.31;5043238;28;20037;-79
2021/09/12 05:07:54;;;;;;;19.95;10.60;;;;;;;16.33;80.09;101758.63;5043565;28;20033;-77
2021/09/12 05:10:21;;;;;;;22.67;12.88;;;;;;;15.87;81.70;101759.13;5043794;28;20220;-77
2021/09/12 05:12:46;;;;;;;26.80;12.50;;;;;;;15.72;82.57;101759.84;5025642;28;20033;-78
2021/09/12 05:15:11;;;;;;;21.75;12.10;;;;;;;15.87;81.58;101766.19;4992759;28;20039;-76
2021/09/12 05:17:37;;;;;;;23.40;11.57;;;;;;;15.96;81.46;101764.91;5025575;28;20025;-77
2021/09/12 05:20:03;;;;;;;24.30;11.65;;;;;;;15.62;82.58;101759.41;5043648;28;20370;-77
2021/09/12 05:22:29;;;;;;;27.83;11.95;;;;;;;15.51;83.06;101761.69;5039765;28;20026;-78
2021/09/12 05:24:54;;;;;;;23.13;11.75;;;;;;;15.63;82.25;101763.75;5021827;28;20044;-77
2021/09/12 05:27:20;;;;;;;21.90;11.70;;;;;;;15.82;81.57;101765.56;5034139;28;20045;-77
2021/09/12 05:29:45;;;;;;;17.75;8.43;;;;;;;16.01;81.77;101760.22;5023634;28;20275;-77
2021/09/12 05:32:13;;;;;;;21.27;11.55;;;;;;;15.99;81.17;101759.44;5007474;28;20054;-77
2021/09/12 05:34:38;;;;;;;22.38;10.88;;;;;;;15.89;81.27;101759.91;5023936;28;20060;-78
2021/09/12 05:37:04;;;;;;;19.40;9.35;;;;;;;15.84;81.60;101761.06;5007174;28;20086;-78
2021/09/12 05:39:29;;;;;;;23.05;12.05;;;;;;;15.35;82.51;101759.78;5023401;28;20033;-78
2021/09/12 05:41:55;;;;;;;23.27;11.25;;;;;;;15.95;81.49;101760.53;5007043;28;20044;-77
2021/09/12 05:44:20;;;;;;;21.38;12.30;;;;;;;15.53;81.96;101759.81;5023209;28;20034;-77
2021/09/12 05:46:47;;;;;;;22.50;11.05;;;;;;;16.21;79.33;101759.22;5006672;28;20045;-78
2021/09/12 05:49:13;;;;;;;21.58;11.23;;;;;;;16.09;80.51;101772.13;5023002;28;20037;-77
2021/09/12 05:51:38;;;;;;;26.95;12.90;;;;;;;15.81;80.80;101769.09;5023562;28;20040;-77
2021/09/12 05:54:03;;;;;;;26.50;13.38;;;;;;;15.67;81.83;101767.13;5023318;28;20043;-77
2021/09/12 05:56:29;;;;;;;19.70;10.68;;;;;;;16.09;80.87;101772.13;5039872;28;20063;-77
2021/09/12 05:58:54;;;;;;;23.52;11.70;;;;;;;16.23;80.17;101770.63;5006830;28;20092;-77
2021/09/12 06:01:20;;;;;;;18.92;11.93;;;;;;;16.58;78.77;101771.47;5022945;28;20348;-77
2021/09/12 06:03:46;;;;;;;17.10;10.57;;;;;;;16.78;77.95;101772.25;5022899;28;20041;-78
2021/09/12 06:06:11;;;;;;;26.25;13.18;;;;;;;16.63;78.20;101779.19;4990730;28;20236;-77
2021/09/12 06:08:36;;;;;;;23.85;12.38;;;;;;;16.52;78.57;101779.72;5006607;28;20048;-78
2021/09/12 06:11:02;;;;;;;19.77;12.15;;;;;;;16.59;78.46;101781.13;5006855;28;20087;-77
2021/09/12 06:13:27;;;;;;;25.15;13.38;;;;;;;16.64;78.52;101781.72;5022386;28;20037;-78
2021/09/12 06:15:53;;;;;;;20.55;11.32;;;;;;;17.13;76.95;101778.34;5006536;28;20040;-77
2021/09/12 06:18:18;;;;;;;25.85;13.45;;;;;;;16.95;77.07;101774.88;5040485;28;20293;-77
2021/09/12 06:20:43;;;;;;;16.98;11.80;;;;;;;16.86;77.35;101770.06;4989955;28;20052;-78
2021/09/12 06:23:09;;;;;;;27.33;12.43;;;;;;;17.07;76.81;101779.53;5022655;28;20037;-77
2021/09/12 06:25:34;;;;;;;28.73;13.02;;;;;;;16.89;77.68;101772.56;5022318;28;20040;-78
2021/09/12 06:28:00;;;;;;;25.50;14.35;;;;;;;16.73;78.41;101771.63;5006280;28;20056;-77
2021/09/12 06:30:25;;;;;;;28.48;14.20;;;;;;;16.69;78.40;101768.28;5039906;28;20324;-77
2021/09/12 06:32:51;;;;;;;27.45;14.68;;;;;;;16.78;77.98;101765.16;5013847;28;20112;-78
2021/09/12 06:35:16;;;;;;;22.38;13.50;;;;;;;16.69;78.50;101771.75;5003909;28;20040;-78
2021/09/12 06:37:41;;;;;;;25.00;13.73;;;;;;;16.55;79.04;101773.41;5002223;28;20285;-77
2021/09/12 06:40:08;;;;;;;26.17;14.38;;;;;;;16.86;78.19;101778.00;4992994;28;20063;-78
2021/09/12 06:42:33;;;;;;;25.63;13.60;;;;;;;16.91;78.19;101778.63;5002502;28;20037;-77
2021/09/12 06:44:58;;;;;;;33.92;14.98;;;;;;;16.93;77.82;101782.03;5022532;28;20021;-78
2021/09/12 06:47:24;;;;;;;26.77;14.48;;;;;;;16.94;77.86;101780.28;5025858;28;20289;-77
2021/09/12 06:49:49;;;;;;;23.38;14.10;;;;;;;17.18;77.38;101783.41;5015552;28;20052;-77
2021/09/12 06:52:15;;;;;;;21.42;13.15;;;;;;;17.22;76.69;101783.13;5001855;28;20033;-77
2021/09/12 06:54:40;;;;;;;21.55;13.75;;;;;;;16.98;77.34;101789.75;5002421;28;20046;-77
2021/09/12 06:57:06;;;;;;;28.80;14.52;;;;;;;17.15;77.56;101791.50;5003190;28;20275;-77
2021/09/12 06:59:31;;;;;;;24.23;11.73;;;;;;;17.29;76.57;101796.91;5010780;28;20044;-77
2021/09/12 07:01:56;;;;;;;23.98;13.75;;;;;;;17.10;77.48;101790.88;5002440;28;20504;-78
2021/09/12 07:04:22;;;;;;;28.17;14.80;;;;;;;16.95;78.47;101796.03;5032553;28;20312;-77
2021/09/12 07:06:47;;;;;;;32.13;14.73;;;;;;;17.15;78.02;101796.78;5004645;28;20044;-77
2021/09/12 07:09:13;;;;;;;27.40;14.77;;;;;;;17.48;76.05;101799.41;4998921;28;20049;-77
2021/09/12 07:11:38;;;;;;;30.77;15.13;;;;;;;17.23;77.62;101799.91;4977353;28;20095;-77
2021/09/12 07:14:04;;;;;;;27.08;15.05;;;;;;;17.26;77.88;101802.34;5006628;28;20051;-78
2021/09/12 07:16:30;;;;;;;27.67;16.25;;;;;;;17.15;78.98;101802.94;5009922;28;20041;-78
2021/09/12 07:18:56;;;;;;;37.80;15.50;;;;;;;17.25;78.27;101803.31;5000150;28;20030;-79
2021/09/12 07:21:23;;;;;;;29.27;13.68;;;;;;;17.50;77.76;101797.56;5002374;28;20076;-84
2021/09/12 07:23:48;;;;;;;32.97;17.25;;;;;;;17.22;78.43;101799.00;4985728;28;20113;-82
2021/09/12 07:26:14;;;;;;;38.22;19.80;;;;;;;16.98;79.92;101795.03;4977317;28;20407;-81
2021/09/12 07:28:39;;;;;;;19.40;8.93;;;;;;;18.54;76.62;101796.09;4986874;28;20039;-82
2021/09/12 07:31:04;;;;;;;33.70;17.48;;;;;;;17.79;76.63;101803.00;4986423;28;20079;-80
2021/09/12 07:33:30;;;;;;;37.15;13.77;;;;;;;17.58;77.33;101803.25;5000893;28;20061;-81
2021/09/12 07:35:55;;;;;;;22.48;11.45;;;;;;;18.56;75.86;101804.81;4994523;28;20061;-81
2021/09/12 07:38:21;;;;;;;38.75;18.30;;;;;;;17.48;78.01;101804.69;5004511;28;20083;-81
2021/09/12 07:40:46;;;;;;;33.30;17.30;;;;;;;17.32;78.64;101802.03;4994091;28;20044;-81
2021/09/12 07:43:12;;;;;;;36.05;18.15;;;;;;;17.88;77.34;101814.91;5000423;28;20329;-82
2021/09/12 07:45:37;;;;;;;52.35;18.50;;;;;;;17.99;75.79;101804.56;5010219;28;20218;-81
2021/09/12 07:48:03;;;;;;;35.10;17.92;;;;;;;18.18;75.64;101815.84;5002122;28;20105;-78
2021/09/12 07:50:28;;;;;;;37.90;18.80;;;;;;;18.29;75.45;101819.69;5000648;28;20064;-79
2021/09/12 07:52:54;;;;;;;35.30;18.63;;;;;;;18.82;74.13;101821.00;5003631;28;20042;-79
2021/09/12 07:55:19;;;;;;;28.75;16.77;;;;;;;19.16;73.33;101827.78;5011271;28;20033;-79
2021/09/12 07:57:44;;;;;;;14.38;6.85;;;;;;;19.50;72.00;101827.47;4986849;28;20037;-79
2021/09/12 08:00:10;;;;;;;40.50;22.45;;;;;;;18.97;74.02;101816.56;5001736;28;20045;-79
2021/09/12 08:02:36;;;;;;;17.50;8.82;;;;;;;19.41;72.33;101831.59;5000666;28;20033;-79
2021/09/12 08:05:01;;;;;;;35.42;18.85;;;;;;;19.88;70.50;101834.84;4984269;28;20041;-79
2021/09/12 08:07:27;;;;;;;26.50;12.43;;;;;;;19.31;72.96;101836.59;4983620;28;20025;-79
2021/09/12 08:09:52;;;;;;;50.20;23.75;;;;;;;19.11;73.39;101832.50;5018210;28;20048;-79
2021/09/12 08:12:18;;;;;;;24.63;9.98;;;;;;;20.00;70.24;101836.72;5032885;28;20045;-79
2021/09/12 08:14:43;;;;;;;33.50;16.38;;;;;;;20.02;70.05;101836.63;5021273;28;20041;-79
2021/09/12 08:17:09;;;;;;;48.53;23.30;;;;;;;19.82;70.79;101837.91;5004789;28;20228;-79
2021/09/12 08:19:34;;;;;;;20.90;11.50;;;;;;;20.09;70.05;101835.28;5020595;28;20041;-79
2021/09/12 08:22:00;;;;;;;11.27;4.65;;;;;;;20.85;66.04;101837.31;4991244;28;20144;-79
2021/09/12 08:24:25;;;;;;;33.65;18.90;;;;;;;20.72;67.99;101841.78;4995684;28;20064;-79
2021/09/12 08:26:50;;;;;;;13.23;7.63;;;;;;;21.56;64.34;101839.56;5015048;28;20037;-79
2021/09/12 08:29:16;;;;;;;13.45;8.27;;;;;;;22.05;62.12;101852.84;5012160;28;20032;-79
2021/09/12 08:31:42;;;;;;;25.92;14.75;;;;;;;21.90;64.82;101853.09;4999878;28;20100;-79
2021/09/12 08:34:07;;;;;;;28.40;17.38;;;;;;;21.23;66.47;101854.28;4999889;28;20257;-80
2021/09/12 08:36:33;;;;;;;25.00;11.43;;;;;;;21.38;64.26;101855.84;4996716;28;20029;-79
2021/09/12 08:38:58;;;;;;;38.03;20.70;;;;;;;20.99;67.84;101856.81;5003826;28;20067;-79
2021/09/12 08:41:23;;;;;;;13.15;7.82;;;;;;;21.23;66.29;101855.13;5000101;28;20241;-80
2021/09/12 08:43:49;;;;;;;27.83;15.43;;;;;;;21.46;64.47;101850.84;5000543;28;20036;-79
2021/09/12 08:46:15;;;;;;;36.10;21.67;;;;;;;21.46;66.02;101845.53;5000271;28;20087;-80
2021/09/12 08:48:40;;;;;;;23.45;13.00;;;;;;;21.47;66.37;101855.22;5000221;28;20049;-79
2021/09/12 08:51:05;;;;;;;16.27;9.07;;;;;;;22.46;63.04;101855.25;5020487;28;20033;-79
2021/09/12 08:53:31;;;;;;;11.27;4.78;;;;;;;22.92;59.13;101865.09;5006436;28;20263;-79
2021/09/12 08:55:56;;;;;;;33.28;19.63;;;;;;;23.13;59.83;101860.78;4985117;28;20029;-79
2021/09/12 08:58:22;;;;;;;29.13;19.80;;;;;;;23.14;61.16;101856.28;5003740;28;20084;-80
2021/09/12 09:00:47;;;;;;;30.02;17.60;;;;;;;23.42;60.84;101862.16;5007995;28;20344;-80
2021/09/12 09:03:13;;;;;;;21.63;12.48;;;;;;;23.15;59.01;101866.88;4999184;28;20044;-80
2021/09/12 09:05:40;;;;;;;14.57;8.20;;;;;;;22.81;60.81;101868.59;4995372;28;20083;-79
2021/09/12 09:08:16;;;;;;;28.43;18.10;;;;;;;22.44;62.95;101868.72;4988731;28;20030;-79
2021/09/12 09:10:51;;;;;;;28.52;18.67;;;;;;;22.11;63.38;101872.03;4992109;28;20049;-80
2021/09/12 09:13:37;;;;;;;22.70;14.00;;;;;;;22.01;61.76;101869.19;5017753;28;20217;-79
2021/09/12 09:16:08;;;;;;;18.50;9.93;;;;;;;22.07;61.21;101870.56;5016555;28;20029;-79
2021/09/12 09:18:41;;;;;;;20.55;12.30;;;;;;;22.27;61.65;101867.31;4997086;28;20351;-79
2021/09/12 09:21:26;;;;;;;19.77;13.18;;;;;;;22.61;60.05;101870.09;4982442;28;20034;-79
2021/09/12 09:24:08;;;;;;;9.18;5.50;;;;;;;22.35;61.92;101862.25;5013341;28;20336;-80
2021/09/12 09:26:41;;;;;;;25.27;15.18;;;;;;;22.80;59.77;101872.25;4994333;28;20072;-79
2021/09/12 09:29:07;;;;;;;6.28;4.45;;;;;;;24.22;56.66;101869.13;4982298;28;20037;-79
2021/09/12 09:31:33;;;;;;;9.68;5.10;;;;;;;23.95;55.05;101865.06;5003537;28;20050;-80
2021/09/12 09:34:18;;;;;;;20.70;15.90;;;;;;;23.58;58.14;101859.97;5015133;28;20041;-79
2021/09/12 09:36:43;;;;;;;14.82;10.55;;;;;;;23.96;55.93;101869.44;4996953;28;20202;-80
2021/09/12 09:39:09;;;;;;;16.67;12.30;;;;;;;23.97;56.81;101867.59;4998550;28;20076;-80
2021/09/12 09:41:36;;;;;;;20.33;12.15;;;;;;;23.82;57.55;101862.53;5007030;28;20038;-80
2021/09/12 09:44:01;;;;;;;22.25;14.65;;;;;;;24.55;56.07;101867.31;5001118;28;20037;-80
2021/09/12 09:46:38;;;;;;;5.95;4.60;;;;;;;24.25;54.57;101867.03;4985121;28;20186;-80
2021/09/12 09:49:25;;;;;;;6.03;4.10;;;;;;;24.59;53.55;101864.25;4988072;28;20036;-80
2021/09/12 09:52:01;;;;;;;6.90;4.25;;;;;;;24.06;55.25;101864.19;5005739;28;20052;-80
2021/09/12 09:54:28;;;;;;;7.15;4.35;;;;;;;24.28;54.49;101866.78;4994955;28;20109;-80
2021/09/12 09:56:53;;;;;;;4.10;3.55;;;;;;;23.86;56.31;101866.63;5000132;28;20033;-80
2021/09/12 09:59:20;;;;;;;5.03;3.90;;;;;;;24.25;55.46;101869.72;5010037;28;20324;-80
2021/09/12 10:01:49;;;;;;;7.72;4.13;;;;;;;24.12;55.54;101866.34;4993846;28;20048;-80
2021/09/12 10:04:16;;;;;;;7.35;4.82;;;;;;;23.81;56.40;101858.13;5012027;28;20065;-80
2021/09/12 10:06:41;;;;;;;9.88;5.97;;;;;;;25.00;54.40;101862.56;5016901;28;20041;-80
2021/09/12 10:09:10;;;;;;;13.50;5.15;;;;;;;24.30;54.81;101867.53;5014392;28;20210;-79
2021/09/12 10:11:35;;;;;;;4.30;3.90;;;;;;;23.65;56.74;101857.63;5009248;28;20038;-78
2021/09/12 10:14:01;;;;;;;16.20;12.50;;;;;;;23.97;58.21;101862.25;5011137;28;20044;-81
2021/09/12 10:16:26;;;;;;;5.15;3.65;;;;;;;23.54;57.35;101867.38;4988361;28;20053;-80
2021/09/12 10:18:52;;;;;;;18.02;12.77;;;;;;;23.45;59.38;101873.47;4979019;28;20027;-80
2021/09/12 10:21:25;;;;;;;17.52;13.38;;;;;;;22.84;61.60;101876.38;4999978;28;20096;-80
2021/09/12 10:24:03;;;;;;;18.55;12.65;;;;;;;23.31;58.47;101863.00;5016320;28;20366;-81
2021/09/12 10:26:37;;;;;;;17.47;10.47;;;;;;;23.22;61.00;101869.09;5005379;28;20048;-80
2021/09/12 10:29:03;;;;;;;19.42;9.38;;;;;;;23.17;59.14;101866.75;4988462;28;20067;-80
2021/09/12 10:31:33;;;;;;;9.07;3.65;;;;;;;23.19;58.76;101871.03;5014807;28;20053;-81
2021/09/12 10:34:12;;;;;;;6.53;3.80;;;;;;;23.18;58.80;101869.31;5004796;28;20029;-79
2021/09/12 10:36:41;;;;;;;13.80;3.70;;;;;;;22.91;59.74;101872.25;5009866;28;20072;-80
2021/09/12 10:39:27;;;;;;;6.95;3.95;;;;;;;23.05;59.68;101873.91;4998364;28;20046;-80
2021/09/12 10:42:17;;;;;;;5.90;4.15;;;;;;;23.08;59.84;101868.31;5007973;28;20053;-80
2021/09/12 10:44:42;;;;;;;4.05;3.28;;;;;;;22.93;60.57;101866.81;5010695;28;20034;-80
2021/09/12 10:47:09;;;;;;;7.15;3.83;;;;;;;23.00;60.44;101860.88;4986129;28;20289;-80
2021/09/12 10:49:35;;;;;;;6.10;3.17;;;;;;;23.27;59.17;101864.22;4985418;28;20153;-79
2021/09/12 10:52:00;;;;;;;4.43;3.80;;;;;;;23.79;57.91;101868.06;5005344;28;20029;-80
2021/09/12 10:54:26;;;;;;;8.57;3.72;;;;;;;23.63;58.58;101870.28;5028276;28;20033;-80
2021/09/12 10:57:06;;;;;;;3.92;3.25;;;;;;;23.45;58.89;101870.78;5015704;28;20085;-80
2021/09/12 10:59:31;;;;;;;5.32;3.25;;;;;;;23.09;59.93;101867.34;4982818;28;20033;-80
2021/09/12 11:01:57;;;;;;;4.53;2.92;;;;;;;23.22;59.32;101872.59;4979522;28;20034;-80
2021/09/12 11:04:30;;;;;;;11.55;3.90;;;;;;;23.35;58.86;101865.31;5002954;28;20034;-80
2021/09/12 11:07:01;;;;;;;4.40;2.50;;;;;;;24.30;56.16;101875.53;5016040;28;20041;-80
2021/09/12 11:09:28;;;;;;;3.33;2.50;;;;;;;23.55;58.00;101868.22;4992740;28;20106;-80
2021/09/12 11:12:04;;;;;;;2.78;2.53;;;;;;;23.67;57.46;101872.59;5012778;28;20033;-80